Wetterdaten: Woche 13.07.15 - 19.07.15 (KW29)
Datum Zeit Temp. A. Feuchte A. Luftdruck Regen Wind Richtung Sonnenschein ET UV Solar Taupunkt Windchill Windben
13.07.2015 00:00 15,3 C 85 % 1016,5 hPa 0,0 l/m 0,2 km/h (0 Bft) N 0,00 h 0,025 mm 0,0 UV-I 0 W/m 12,7 C 15,3 C 0,3 km/h (0 Bft)
13.07.2015 01:00 15,1 C 87 % 1016,1 hPa 0,0 l/m 0,0 km/h (0 Bft) N 0,00 h 0,000 mm 0,0 UV-I 0 W/m 12,8 C 15,1 C 0,0 km/h (0 Bft)
13.07.2015 02:00 14,9 C 88 % 1015,8 hPa 0,0 l/m 0,5 km/h (0 Bft) N 0,00 h 0,000 mm 0,0 UV-I 0 W/m 12,9 C 14,9 C 1,5 km/h (1 Bft)
13.07.2015 03:00 14,4 C 88 % 1015,7 hPa 0,0 l/m 0,6 km/h (0 Bft) W 0,00 h 0,000 mm 0,0 UV-I 0 W/m 12,5 C 14,4 C 2,6 km/h (1 Bft)
13.07.2015 04:00 14,1 C 85 % 1015,6 hPa 0,0 l/m 0,8 km/h (0 Bft) W 0,00 h 0,000 mm 0,0 UV-I 0 W/m 11,5 C 14,1 C 3,5 km/h (1 Bft)
13.07.2015 05:00 13,5 C 86 % 1015,9 hPa 0,0 l/m 0,0 km/h (0 Bft) N 0,00 h 0,000 mm 0,0 UV-I 12 W/m 11,3 C 13,5 C 0,2 km/h (0 Bft)
13.07.2015 06:00 13,6 C 89 % 1016,0 hPa 0,0 l/m 0,3 km/h (0 Bft) N 0,40 h 0,000 mm 0,0 UV-I 54 W/m 11,9 C 13,6 C 1,3 km/h (1 Bft)
13.07.2015 07:00 15,0 C 83 % 1016,2 hPa 0,0 l/m 1,3 km/h (1 Bft) SW 1,00 h 0,025 mm 0,7 UV-I 169 W/m 12,1 C 15,0 C 4,3 km/h (1 Bft)
13.07.2015 08:00 15,9 C 77 % 1016,3 hPa 0,0 l/m 5,2 km/h (1 Bft) W-SW 1,00 h 0,102 mm 1,0 UV-I 174 W/m 11,9 C 15,6 C 10,6 km/h (2 Bft)
13.07.2015 09:00 16,0 C 76 % 1016,4 hPa 0,0 l/m 4,4 km/h (1 Bft) W-SW 1,00 h 0,102 mm 1,5 UV-I 208 W/m 11,9 C 15,9 C 10,6 km/h (2 Bft)
13.07.2015 10:00 17,3 C 72 % 1016,3 hPa 0,0 l/m 4,5 km/h (1 Bft) W 1,00 h 0,127 mm 2,5 UV-I 323 W/m 12,3 C 17,1 C 10,7 km/h (2 Bft)
13.07.2015 11:00 17,9 C 70 % 1016,2 hPa 0,0 l/m 4,5 km/h (1 Bft) W 1,00 h 0,203 mm 2,4 UV-I 259 W/m 12,5 C 17,6 C 10,7 km/h (2 Bft)
13.07.2015 12:00 18,6 C 69 % 1016,3 hPa 0,0 l/m 7,5 km/h (2 Bft) W 1,00 h 0,178 mm 4,2 UV-I 508 W/m 12,9 C 17,8 C 15,7 km/h (3 Bft)
13.07.2015 13:00 20,3 C 62 % 1015,8 hPa 0,0 l/m 6,0 km/h (2 Bft) W-SW 1,00 h 0,330 mm 4,1 UV-I 521 W/m 12,7 C 19,9 C 12,7 km/h (3 Bft)
13.07.2015 14:00 19,9 C 60 % 1015,7 hPa 0,0 l/m 8,3 km/h (2 Bft) W 1,00 h 0,330 mm 2,1 UV-I 246 W/m 11,9 C 18,9 C 15,8 km/h (3 Bft)
13.07.2015 15:00 19,7 C 60 % 1015,6 hPa 0,0 l/m 8,8 km/h (2 Bft) W 1,00 h 0,203 mm 2,0 UV-I 245 W/m 11,7 C 18,6 C 17,1 km/h (3 Bft)
13.07.2015 16:00 18,9 C 65 % 1015,8 hPa 0,0 l/m 5,9 km/h (2 Bft) W 1,00 h 0,203 mm 1,1 UV-I 139 W/m 12,0 C 18,4 C 12,4 km/h (2 Bft)
13.07.2015 17:00 16,7 C 81 % 1016,2 hPa 0,2 l/m 2,2 km/h (1 Bft) W 0,92 h 0,102 mm 0,7 UV-I 95 W/m 13,5 C 16,7 C 6,1 km/h (2 Bft)
13.07.2015 18:00 16,3 C 85 % 1016,3 hPa 0,0 l/m 2,4 km/h (1 Bft) W 0,48 h 0,051 mm 0,5 UV-I 51 W/m 13,7 C 16,2 C 6,5 km/h (2 Bft)
13.07.2015 19:00 16,0 C 83 % 1016,3 hPa 0,0 l/m 3,5 km/h (1 Bft) W 0,18 h 0,025 mm 0,0 UV-I 33 W/m 13,1 C 15,9 C 8,8 km/h (2 Bft)
13.07.2015 20:00 15,5 C 87 % 1016,3 hPa 0,0 l/m 1,6 km/h (1 Bft) W-SW 0,00 h 0,025 mm 0,0 UV-I 16 W/m 13,4 C 15,5 C 5,4 km/h (2 Bft)
13.07.2015 21:00 15,2 C 89 % 1016,3 hPa 0,0 l/m 0,2 km/h (0 Bft) N 0,00 h 0,025 mm 0,0 UV-I 0 W/m 13,3 C 15,2 C 0,9 km/h (0 Bft)
13.07.2015 22:00 15,1 C 90 % 1016,4 hPa 0,0 l/m 0,5 km/h (0 Bft) N 0,00 h 0,000 mm 0,0 UV-I 0 W/m 13,5 C 15,1 C 2,1 km/h (1 Bft)
13.07.2015 23:00 15,3 C 89 % 1016,4 hPa 0,0 l/m 3,3 km/h (1 Bft) W-SW 0,00 h 0,000 mm 0,0 UV-I 0 W/m 13,5 C 15,2 C 8,6 km/h (2 Bft)
14.07.2015 00:00 15,0 C 93 % 1016,3 hPa 0,0 l/m 1,8 km/h (1 Bft) W-SW 0,00 h 0,000 mm 0,0 UV-I 0 W/m 13,9 C 15,0 C 5,1 km/h (1 Bft)
14.07.2015 01:00 14,9 C 95 % 1015,9 hPa 0,4 l/m 1,2 km/h (1 Bft) SW 0,00 h 0,000 mm 0,0 UV-I 0 W/m 14,0 C 14,9 C 5,2 km/h (1 Bft)
14.07.2015 02:00 15,0 C 95 % 1015,6 hPa 0,0 l/m 0,9 km/h (0 Bft) N 0,00 h 0,000 mm 0,0 UV-I 0 W/m 14,2 C 15,0 C 3,7 km/h (1 Bft)
14.07.2015 03:00 15,2 C 95 % 1015,4 hPa 0,0 l/m 2,4 km/h (1 Bft) W-SW 0,00 h 0,000 mm 0,0 UV-I 0 W/m 14,4 C 15,1 C 7,0 km/h (2 Bft)
14.07.2015 04:00 15,4 C 95 % 1015,3 hPa 0,0 l/m 2,6 km/h (1 Bft) W-SW 0,00 h 0,000 mm 0,0 UV-I 0 W/m 14,6 C 15,2 C 7,8 km/h (2 Bft)
14.07.2015 05:00 15,5 C 94 % 1015,2 hPa 0,0 l/m 0,7 km/h (0 Bft) N 0,00 h 0,000 mm 0,0 UV-I 7 W/m 14,6 C 15,5 C 3,2 km/h (1 Bft)
14.07.2015 06:00 15,7 C 93 % 1015,3 hPa 0,0 l/m 2,3 km/h (1 Bft) W-SW 0,00 h 0,000 mm 0,0 UV-I 17 W/m 14,6 C 15,7 C 7,4 km/h (2 Bft)
14.07.2015 07:00 15,9 C 92 % 1015,3 hPa 0,0 l/m 3,4 km/h (1 Bft) W-SW 0,25 h 0,000 mm 0,0 UV-I 38 W/m 14,6 C 15,8 C 8,3 km/h (2 Bft)
14.07.2015 08:00 16,2 C 93 % 1015,4 hPa 0,4 l/m 4,4 km/h (1 Bft) W-SW 0,58 h 0,025 mm 0,6 UV-I 58 W/m 15,0 C 15,9 C 10,4 km/h (2 Bft)
14.07.2015 09:00 16,3 C 94 % 1015,4 hPa 0,4 l/m 3,7 km/h (1 Bft) W-SW 0,92 h 0,025 mm 0,9 UV-I 96 W/m 15,3 C 16,1 C 9,4 km/h (2 Bft)
14.07.2015 10:00 17,0 C 92 % 1015,3 hPa 0,0 l/m 5,6 km/h (2 Bft) W-SW 1,00 h 0,051 mm 1,4 UV-I 169 W/m 15,7 C 16,5 C 12,5 km/h (2 Bft)
14.07.2015 11:00 17,7 C 88 % 1015,4 hPa 0,0 l/m 7,9 km/h (2 Bft) W 1,00 h 0,102 mm 1,3 UV-I 136 W/m 15,7 C 16,8 C 14,7 km/h (3 Bft)
14.07.2015 12:00 18,2 C 86 % 1015,4 hPa 0,0 l/m 8,0 km/h (2 Bft) W-SW 1,00 h 0,076 mm 1,7 UV-I 168 W/m 15,8 C 17,4 C 14,8 km/h (3 Bft)
14.07.2015 13:00 18,3 C 85 % 1015,5 hPa 0,0 l/m 12,1 km/h (2 Bft) W 1,00 h 0,102 mm 1,8 UV-I 181 W/m 15,7 C 16,2 C 23,1 km/h (4 Bft)
14.07.2015 14:00 19,2 C 82 % 1015,7 hPa 0,0 l/m 9,9 km/h (2 Bft) W 1,00 h 0,127 mm 3,1 UV-I 321 W/m 16,1 C 17,7 C 18,6 km/h (3 Bft)
14.07.2015 15:00 20,2 C 78 % 1015,7 hPa 0,0 l/m 9,3 km/h (2 Bft) W 1,00 h 0,203 mm 3,3 UV-I 341 W/m 16,2 C 19,0 C 17,5 km/h (3 Bft)
14.07.2015 16:00 20,7 C 75 % 1015,7 hPa 0,0 l/m 7,0 km/h (2 Bft) W 1,00 h 0,229 mm 2,0 UV-I 230 W/m 16,1 C 20,1 C 14,2 km/h (3 Bft)
14.07.2015 17:00 19,3 C 80 % 1015,9 hPa 0,0 l/m 5,7 km/h (2 Bft) W 0,65 h 0,152 mm 0,7 UV-I 68 W/m 15,8 C 18,9 C 13,4 km/h (3 Bft)
14.07.2015 18:00 19,1 C 80 % 1015,9 hPa 0,0 l/m 1,4 km/h (1 Bft) N 1,00 h 0,051 mm 0,6 UV-I 89 W/m 15,6 C 19,1 C 4,2 km/h (1 Bft)
14.07.2015 19:00 19,1 C 83 % 1015,8 hPa 0,0 l/m 2,0 km/h (1 Bft) W 0,53 h 0,051 mm 0,6 UV-I 60 W/m 16,0 C 19,0 C 5,5 km/h (2 Bft)
14.07.2015 20:00 19,4 C 79 % 1016,0 hPa 0,0 l/m 4,4 km/h (1 Bft) W-NW 0,00 h 0,051 mm 0,0 UV-I 13 W/m 15,7 C 19,1 C 9,8 km/h (2 Bft)
14.07.2015 21:00 18,5 C 81 % 1016,7 hPa 0,0 l/m 4,0 km/h (1 Bft) N 0,00 h 0,025 mm 0,0 UV-I 0 W/m 15,2 C 18,1 C 8,7 km/h (2 Bft)
14.07.2015 22:00 17,5 C 86 % 1017,1 hPa 0,0 l/m 0,0 km/h (0 Bft) N 0,00 h 0,025 mm 0,0 UV-I 0 W/m 15,2 C 17,5 C 0,0 km/h (0 Bft)
14.07.2015 23:00 17,1 C 89 % 1017,3 hPa 0,0 l/m 0,0 km/h (0 Bft) N 0,00 h 0,000 mm 0,0 UV-I 0 W/m 15,3 C 17,1 C 0,0 km/h (0 Bft)
15.07.2015 00:00 17,0 C 89 % 1017,4 hPa 0,0 l/m 0,1 km/h (0 Bft) N 0,00 h 0,000 mm 0,0 UV-I 0 W/m 15,2 C 17,0 C 0,3 km/h (0 Bft)
15.07.2015 01:00 16,8 C 90 % 1017,5 hPa 0,0 l/m 0,0 km/h (0 Bft) N 0,00 h 0,000 mm 0,0 UV-I 0 W/m 15,2 C 16,8 C 0,1 km/h (0 Bft)
15.07.2015 02:00 16,7 C 90 % 1017,6 hPa 0,0 l/m 0,0 km/h (0 Bft) N 0,00 h 0,000 mm 0,0 UV-I 0 W/m 15,1 C 16,7 C 0,2 km/h (0 Bft)
15.07.2015 03:00 16,7 C 89 % 1017,6 hPa 0,0 l/m 0,1 km/h (0 Bft) N 0,00 h 0,000 mm 0,0 UV-I 0 W/m 14,9 C 16,7 C 1,0 km/h (0 Bft)
15.07.2015 04:00 16,5 C 90 % 1017,8 hPa 0,0 l/m 0,1 km/h (0 Bft) N 0,00 h 0,000 mm 0,0 UV-I 0 W/m 14,8 C 16,5 C 0,7 km/h (0 Bft)
15.07.2015 05:00 16,4 C 89 % 1018,1 hPa 0,0 l/m 0,3 km/h (0 Bft) N 0,00 h 0,000 mm 0,0 UV-I 7 W/m 14,6 C 16,4 C 1,5 km/h (1 Bft)
15.07.2015 06:00 16,5 C 89 % 1018,3 hPa 0,0 l/m 0,2 km/h (0 Bft) N 0,00 h 0,000 mm 0,0 UV-I 21 W/m 14,6 C 16,5 C 1,3 km/h (1 Bft)
15.07.2015 07:00 16,8 C 88 % 1018,7 hPa 0,0 l/m 0,2 km/h (0 Bft) N 0,43 h 0,025 mm 0,5 UV-I 51 W/m 14,8 C 16,8 C 0,9 km/h (0 Bft)
15.07.2015 08:00 17,2 C 87 % 1019,1 hPa 0,0 l/m 0,6 km/h (0 Bft) N 1,00 h 0,025 mm 0,8 UV-I 114 W/m 15,1 C 17,2 C 1,8 km/h (1 Bft)
15.07.2015 09:00 17,5 C 85 % 1019,2 hPa 0,0 l/m 0,6 km/h (0 Bft) N 0,82 h 0,076 mm 0,8 UV-I 82 W/m 15,0 C 17,5 C 2,1 km/h (1 Bft)
15.07.2015 10:00 18,2 C 82 % 1019,3 hPa 0,0 l/m 1,0 km/h (0 Bft) N 1,00 h 0,051 mm 1,4 UV-I 168 W/m 15,1 C 18,2 C 3,2 km/h (1 Bft)
15.07.2015 11:00 19,5 C 76 % 1019,4 hPa 0,0 l/m 2,2 km/h (1 Bft) W 1,00 h 0,102 mm 2,6 UV-I 292 W/m 15,2 C 19,5 C 5,9 km/h (2 Bft)
15.07.2015 12:00 19,9 C 74 % 1019,4 hPa 0,0 l/m 4,0 km/h (1 Bft) W 1,00 h 0,178 mm 3,0 UV-I 290 W/m 15,1 C 19,9 C 8,2 km/h (2 Bft)
15.07.2015 13:00 20,7 C 69 % 1019,3 hPa 0,0 l/m 5,8 km/h (2 Bft) W-SW 1,00 h 0,178 mm 3,4 UV-I 348 W/m 14,9 C 20,4 C 10,3 km/h (2 Bft)
15.07.2015 14:00 20,0 C 72 % 1019,3 hPa 0,0 l/m 4,5 km/h (1 Bft) W 1,00 h 0,229 mm 1,8 UV-I 185 W/m 14,8 C 19,9 C 8,3 km/h (2 Bft)
15.07.2015 15:00 21,4 C 68 % 1018,9 hPa 0,0 l/m 0,6 km/h (0 Bft) N 1,00 h 0,127 mm 3,3 UV-I 454 W/m 15,3 C 21,4 C 2,2 km/h (1 Bft)
15.07.2015 16:00 22,8 C 62 % 1018,6 hPa 0,0 l/m 2,6 km/h (1 Bft) W 1,00 h 0,254 mm 3,0 UV-I 483 W/m 15,0 C 22,8 C 5,6 km/h (2 Bft)
15.07.2015 17:00 23,6 C 57 % 1018,3 hPa 0,0 l/m 3,0 km/h (1 Bft) W-SW 1,00 h 0,305 mm 2,0 UV-I 402 W/m 14,6 C 23,5 C 6,6 km/h (2 Bft)
15.07.2015 18:00 23,1 C 55 % 1017,9 hPa 0,0 l/m 4,0 km/h (1 Bft) W 0,97 h 0,254 mm 1,0 UV-I 69 W/m 13,6 C 23,0 C 8,4 km/h (2 Bft)
15.07.2015 19:00 22,6 C 54 % 1017,7 hPa 0,0 l/m 3,4 km/h (1 Bft) W 0,00 h 0,076 mm 0,0 UV-I 34 W/m 12,9 C 22,6 C 7,4 km/h (2 Bft)
15.07.2015 20:00 21,8 C 58 % 1017,6 hPa 0,0 l/m 0,4 km/h (0 Bft) N 0,00 h 0,051 mm 0,0 UV-I 17 W/m 13,1 C 21,8 C 1,4 km/h (1 Bft)
15.07.2015 21:00 18,9 C 74 % 1017,8 hPa 0,0 l/m 0,0 km/h (0 Bft) N 0,00 h 0,025 mm 0,0 UV-I 5 W/m 14,0 C 18,9 C 0,0 km/h (0 Bft)
15.07.2015 22:00 17,0 C 81 % 1018,0 hPa 0,0 l/m 0,0 km/h (0 Bft) N 0,00 h 0,000 mm 0,0 UV-I 0 W/m 13,8 C 17,0 C 0,0 km/h (0 Bft)
15.07.2015 23:00 15,6 C 86 % 1018,2 hPa 0,0 l/m 0,0 km/h (0 Bft) N 0,00 h 0,025 mm 0,0 UV-I 0 W/m 13,3 C 15,6 C 0,0 km/h (0 Bft)
16.07.2015 00:00 14,6 C 89 % 1018,2 hPa 0,0 l/m 0,0 km/h (0 Bft) N 0,00 h 0,000 mm 0,0 UV-I 0 W/m 12,8 C 14,6 C 0,0 km/h (0 Bft)
16.07.2015 01:00 13,8 C 91 % 1018,3 hPa 0,0 l/m 0,0 km/h (0 Bft) N 0,00 h 0,000 mm 0,0 UV-I 0 W/m 12,4 C 13,8 C 0,0 km/h (0 Bft)
16.07.2015 02:00 13,2 C 93 % 1018,3 hPa 0,0 l/m 0,0 km/h (0 Bft) N 0,00 h 0,000 mm 0,0 UV-I 0 W/m 12,1 C 13,2 C 0,0 km/h (0 Bft)
16.07.2015 03:00 12,9 C 94 % 1018,0 hPa 0,0 l/m 0,0 km/h (0 Bft) N 0,00 h 0,000 mm 0,0 UV-I 0 W/m 11,8 C 12,9 C 0,0 km/h (0 Bft)
16.07.2015 04:00 12,5 C 95 % 1017,8 hPa 0,0 l/m 0,0 km/h (0 Bft) N 0,00 h 0,000 mm 0,0 UV-I 0 W/m 11,7 C 12,5 C 0,1 km/h (0 Bft)
16.07.2015 05:00 12,3 C 95 % 1018,0 hPa 0,0 l/m 0,0 km/h (0 Bft) N 0,00 h 0,000 mm 0,0 UV-I 13 W/m 11,5 C 12,3 C 0,0 km/h (0 Bft)
16.07.2015 06:00 13,0 C 94 % 1018,2 hPa 0,0 l/m 0,0 km/h (0 Bft) N 0,62 h 0,000 mm 0,0 UV-I 50 W/m 12,0 C 13,0 C 0,0 km/h (0 Bft)
16.07.2015 07:00 16,0 C 88 % 1018,2 hPa 0,0 l/m 0,0 km/h (0 Bft) N 0,85 h 0,025 mm 0,7 UV-I 127 W/m 14,0 C 16,0 C 0,0 km/h (0 Bft)
16.07.2015 08:00 19,7 C 77 % 1018,3 hPa 0,0 l/m 1,5 km/h (1 Bft) N 1,00 h 0,076 mm 1,3 UV-I 273 W/m 15,5 C 19,7 C 3,3 km/h (1 Bft)
16.07.2015 09:00 22,3 C 69 % 1018,4 hPa 0,0 l/m 2,1 km/h (1 Bft) N 1,00 h 0,152 mm 2,6 UV-I 464 W/m 16,2 C 22,2 C 4,3 km/h (1 Bft)
16.07.2015 10:00 25,3 C 59 % 1018,2 hPa 0,0 l/m 2,3 km/h (1 Bft) W-SW 1,00 h 0,279 mm 4,0 UV-I 675 W/m 16,7 C 25,3 C 5,9 km/h (2 Bft)
16.07.2015 11:00 26,7 C 54 % 1017,9 hPa 0,0 l/m 6,1 km/h (2 Bft) W-SW 1,00 h 0,432 mm 4,8 UV-I 656 W/m 16,5 C 26,4 C 11,3 km/h (2 Bft)
16.07.2015 12:00 27,9 C 49 % 1017,7 hPa 0,0 l/m 6,9 km/h (2 Bft) W 1,00 h 0,457 mm 5,6 UV-I 690 W/m 16,1 C 27,7 C 13,3 km/h (3 Bft)
16.07.2015 13:00 28,4 C 46 % 1017,4 hPa 0,0 l/m 6,6 km/h (2 Bft) W 1,00 h 0,483 mm 5,8 UV-I 706 W/m 15,5 C 28,3 C 13,2 km/h (3 Bft)
16.07.2015 14:00 29,6 C 42 % 1016,9 hPa 0,0 l/m 5,4 km/h (2 Bft) SW 1,00 h 0,508 mm 5,5 UV-I 798 W/m 15,4 C 29,5 C 11,3 km/h (2 Bft)
16.07.2015 15:00 29,4 C 42 % 1016,6 hPa 0,0 l/m 6,1 km/h (2 Bft) W-NW 1,00 h 0,559 mm 3,7 UV-I 482 W/m 15,2 C 29,3 C 11,8 km/h (2 Bft)
16.07.2015 16:00 29,8 C 41 % 1016,3 hPa 0,0 l/m 5,2 km/h (1 Bft) W-NW 1,00 h 0,381 mm 3,5 UV-I 667 W/m 14,9 C 29,7 C 10,4 km/h (2 Bft)
16.07.2015 17:00 29,6 C 40 % 1015,9 hPa 0,0 l/m 3,4 km/h (1 Bft) W-NW 1,00 h 0,457 mm 2,1 UV-I 425 W/m 14,4 C 29,6 C 7,6 km/h (2 Bft)
16.07.2015 18:00 28,2 C 42 % 1015,4 hPa 0,0 l/m 3,2 km/h (1 Bft) N 0,50 h 0,305 mm 1,1 UV-I 50 W/m 13,9 C 28,1 C 6,8 km/h (2 Bft)
16.07.2015 19:00 27,2 C 44 % 1015,4 hPa 0,0 l/m 2,8 km/h (1 Bft) N 0,00 h 0,076 mm 0,0 UV-I 32 W/m 14,0 C 27,2 C 6,0 km/h (2 Bft)
16.07.2015 20:00 25,8 C 49 % 1015,5 hPa 0,0 l/m 0,7 km/h (0 Bft) N 0,00 h 0,051 mm 0,0 UV-I 17 W/m 14,2 C 25,8 C 2,3 km/h (1 Bft)
16.07.2015 21:00 23,3 C 59 % 1015,9 hPa 0,0 l/m 0,0 km/h (0 Bft) N 0,00 h 0,025 mm 0,0 UV-I 6 W/m 14,7 C 23,3 C 0,1 km/h (0 Bft)
16.07.2015 22:00 20,6 C 71 % 1016,1 hPa 0,0 l/m 0,0 km/h (0 Bft) N 0,00 h 0,000 mm 0,0 UV-I 0 W/m 15,2 C 20,6 C 0,1 km/h (0 Bft)
16.07.2015 23:00 18,8 C 79 % 1016,1 hPa 0,0 l/m 0,0 km/h (0 Bft) N 0,00 h 0,025 mm 0,0 UV-I 0 W/m 15,1 C 18,8 C 0,1 km/h (0 Bft)
17.07.2015 00:00 17,8 C 82 % 1016,3 hPa 0,0 l/m 0,0 km/h (0 Bft) N 0,00 h 0,025 mm 0,0 UV-I 0 W/m 14,8 C 17,8 C 0,3 km/h (0 Bft)
17.07.2015 01:00 17,0 C 87 % 1016,3 hPa 0,0 l/m 0,0 km/h (0 Bft) N 0,00 h 0,025 mm 0,0 UV-I 0 W/m 14,8 C 17,0 C 0,0 km/h (0 Bft)
17.07.2015 02:00 16,8 C 87 % 1016,2 hPa 0,0 l/m 0,0 km/h (0 Bft) N 0,00 h 0,000 mm 0,0 UV-I 0 W/m 14,7 C 16,8 C 0,0 km/h (0 Bft)
17.07.2015 03:00 16,2 C 89 % 1015,9 hPa 0,0 l/m 0,0 km/h (0 Bft) N 0,00 h 0,000 mm 0,0 UV-I 0 W/m 14,4 C 16,2 C 0,0 km/h (0 Bft)
17.07.2015 04:00 15,3 C 90 % 1015,7 hPa 0,0 l/m 0,0 km/h (0 Bft) N 0,00 h 0,000 mm 0,0 UV-I 0 W/m 13,8 C 15,3 C 0,0 km/h (0 Bft)
17.07.2015 05:00 14,9 C 92 % 1015,5 hPa 0,0 l/m 0,0 km/h (0 Bft) N 0,00 h 0,000 mm 0,0 UV-I 11 W/m 13,6 C 14,9 C 0,0 km/h (0 Bft)
17.07.2015 06:00 15,3 C 92 % 1015,7 hPa 0,0 l/m 0,0 km/h (0 Bft) N 0,00 h 0,000 mm 0,0 UV-I 33 W/m 14,0 C 15,3 C 0,0 km/h (0 Bft)
17.07.2015 07:00 17,8 C 87 % 1015,9 hPa 0,0 l/m 0,1 km/h (0 Bft) N 0,95 h 0,025 mm 0,7 UV-I 155 W/m 15,6 C 17,8 C 0,1 km/h (0 Bft)
17.07.2015 08:00 21,6 C 78 % 1015,8 hPa 0,0 l/m 0,0 km/h (0 Bft) N 1,00 h 0,076 mm 1,4 UV-I 378 W/m 17,5 C 21,6 C 0,1 km/h (0 Bft)
17.07.2015 09:00 25,3 C 63 % 1015,6 hPa 0,0 l/m 0,8 km/h (0 Bft) N 1,00 h 0,229 mm 2,4 UV-I 501 W/m 17,8 C 25,3 C 2,2 km/h (1 Bft)
17.07.2015 10:00 28,4 C 49 % 1015,5 hPa 0,0 l/m 5,7 km/h (2 Bft) W-SW 1,00 h 0,305 mm 3,6 UV-I 640 W/m 16,6 C 28,3 C 10,3 km/h (2 Bft)
17.07.2015 11:00 30,2 C 45 % 1015,3 hPa 0,0 l/m 6,0 km/h (2 Bft) S-SW 1,00 h 0,457 mm 5,1 UV-I 756 W/m 16,9 C 30,1 C 12,5 km/h (2 Bft)
17.07.2015 12:00 31,5 C 39 % 1015,3 hPa 0,0 l/m 3,2 km/h (1 Bft) W-SW 1,00 h 0,584 mm 4,2 UV-I 599 W/m 16,0 C 31,5 C 7,9 km/h (2 Bft)
17.07.2015 13:00 30,7 C 40 % 1015,4 hPa 0,0 l/m 1,4 km/h (1 Bft) N 1,00 h 0,432 mm 3,7 UV-I 431 W/m 15,3 C 30,7 C 3,9 km/h (1 Bft)
17.07.2015 14:00 33,1 C 32 % 1014,8 hPa 0,0 l/m 2,1 km/h (1 Bft) N 1,00 h 0,330 mm 5,5 UV-I 789 W/m 14,3 C 33,1 C 4,6 km/h (1 Bft)
17.07.2015 15:00 33,2 C 30 % 1014,4 hPa 0,0 l/m 2,3 km/h (1 Bft) SO 1,00 h 0,584 mm 4,2 UV-I 636 W/m 13,3 C 33,2 C 5,5 km/h (2 Bft)
17.07.2015 16:00 33,3 C 30 % 1013,6 hPa 0,0 l/m 3,4 km/h (1 Bft) S-SO 1,00 h 0,483 mm 3,2 UV-I 595 W/m 13,1 C 33,3 C 7,2 km/h (2 Bft)
17.07.2015 17:00 33,1 C 27 % 1013,0 hPa 0,0 l/m 3,7 km/h (1 Bft) S-SO 1,00 h 0,457 mm 1,8 UV-I 378 W/m 11,8 C 33,1 C 7,5 km/h (2 Bft)
17.07.2015 18:00 31,6 C 31 % 1012,6 hPa 0,0 l/m 2,4 km/h (1 Bft) S-SO 1,00 h 0,330 mm 0,8 UV-I 92 W/m 12,6 C 31,6 C 5,2 km/h (1 Bft)
17.07.2015 19:00 29,6 C 38 % 1012,6 hPa 0,0 l/m 3,5 km/h (1 Bft) N 0,63 h 0,102 mm 0,0 UV-I 63 W/m 13,5 C 29,5 C 6,8 km/h (2 Bft)
17.07.2015 20:00 25,7 C 50 % 1012,9 hPa 0,0 l/m 1,1 km/h (1 Bft) SO 0,40 h 0,102 mm 0,0 UV-I 45 W/m 14,6 C 25,7 C 3,3 km/h (1 Bft)
17.07.2015 21:00 24,3 C 58 % 1013,7 hPa 0,0 l/m 1,1 km/h (1 Bft) N 0,00 h 0,051 mm 0,0 UV-I 6 W/m 15,4 C 24,3 C 2,9 km/h (1 Bft)
17.07.2015 22:00 22,5 C 67 % 1014,1 hPa 0,0 l/m 0,0 km/h (0 Bft) N 0,00 h 0,025 mm 0,0 UV-I 0 W/m 16,0 C 22,5 C 0,0 km/h (0 Bft)
17.07.2015 23:00 20,9 C 75 % 1014,0 hPa 0,0 l/m 0,0 km/h (0 Bft) N 0,00 h 0,025 mm 0,0 UV-I 0 W/m 16,4 C 20,9 C 0,0 km/h (0 Bft)
18.07.2015 00:00 19,6 C 82 % 1014,0 hPa 0,0 l/m 0,0 km/h (0 Bft) N 0,00 h 0,025 mm 0,0 UV-I 0 W/m 16,4 C 19,6 C 0,0 km/h (0 Bft)
18.07.2015 01:00 19,6 C 81 % 1014,1 hPa 0,0 l/m 0,2 km/h (0 Bft) N 0,00 h 0,025 mm 0,0 UV-I 0 W/m 16,2 C 19,6 C 0,6 km/h (0 Bft)
18.07.2015 02:00 20,8 C 71 % 1014,4 hPa 0,0 l/m 0,2 km/h (0 Bft) N 0,00 h 0,025 mm 0,0 UV-I 0 W/m 15,3 C 20,8 C 0,6 km/h (0 Bft)
18.07.2015 03:00 19,9 C 72 % 1014,7 hPa 0,0 l/m 0,1 km/h (0 Bft) N 0,00 h 0,025 mm 0,0 UV-I 0 W/m 14,6 C 19,9 C 0,6 km/h (0 Bft)
18.07.2015 04:00 19,4 C 70 % 1015,0 hPa 0,0 l/m 0,1 km/h (0 Bft) N 0,00 h 0,000 mm 0,0 UV-I 0 W/m 13,9 C 19,4 C 0,4 km/h (0 Bft)
18.07.2015 05:00 18,7 C 73 % 1014,6 hPa 0,0 l/m 0,7 km/h (0 Bft) N 0,00 h 0,025 mm 0,0 UV-I 23 W/m 13,9 C 18,7 C 1,6 km/h (1 Bft)
18.07.2015 06:00 19,7 C 72 % 1015,5 hPa 0,4 l/m 4,8 km/h (1 Bft) SW 0,33 h 0,025 mm 0,0 UV-I 31 W/m 14,4 C 19,4 C 10,8 km/h (2 Bft)
18.07.2015 07:00 18,0 C 86 % 1014,9 hPa 0,0 l/m 0,5 km/h (0 Bft) N 0,58 h 0,051 mm 0,0 UV-I 57 W/m 15,5 C 18,0 C 2,5 km/h (1 Bft)
18.07.2015 08:00 19,2 C 86 % 1014,3 hPa 0,0 l/m 0,4 km/h (0 Bft) N 0,65 h 0,025 mm 1,4 UV-I 190 W/m 16,7 C 19,2 C 1,2 km/h (1 Bft)
18.07.2015 09:00 22,7 C 77 % 1014,7 hPa 0,0 l/m 2,9 km/h (1 Bft) W 1,00 h 0,102 mm 2,5 UV-I 543 W/m 18,5 C 22,6 C 6,7 km/h (2 Bft)
18.07.2015 10:00 24,8 C 64 % 1015,1 hPa 0,0 l/m 5,9 km/h (2 Bft) S 1,00 h 0,381 mm 3,9 UV-I 669 W/m 17,5 C 24,7 C 12,5 km/h (2 Bft)
18.07.2015 11:00 27,3 C 54 % 1015,4 hPa 0,0 l/m 6,8 km/h (2 Bft) W-SW 1,00 h 0,457 mm 5,1 UV-I 733 W/m 17,2 C 27,0 C 13,5 km/h (3 Bft)
18.07.2015 12:00 28,2 C 50 % 1015,3 hPa 0,0 l/m 6,3 km/h (2 Bft) SW 1,00 h 0,508 mm 5,5 UV-I 670 W/m 16,6 C 28,0 C 12,7 km/h (3 Bft)
18.07.2015 13:00 29,7 C 42 % 1015,0 hPa 0,2 l/m 8,5 km/h (2 Bft) W-NW 1,00 h 0,508 mm 5,9 UV-I 709 W/m 15,4 C 29,5 C 16,4 km/h (3 Bft)
18.07.2015 14:00 29,1 C 41 % 1015,2 hPa 0,0 l/m 9,8 km/h (2 Bft) W 1,00 h 0,559 mm 3,9 UV-I 451 W/m 14,6 C 28,8 C 19,0 km/h (3 Bft)
18.07.2015 15:00 28,6 C 45 % 1015,1 hPa 0,0 l/m 10,2 km/h (2 Bft) W 1,00 h 0,406 mm 3,3 UV-I 440 W/m 15,4 C 28,2 C 20,3 km/h (4 Bft)
18.07.2015 16:00 27,5 C 48 % 1014,9 hPa 0,0 l/m 7,4 km/h (2 Bft) W 1,00 h 0,381 mm 2,1 UV-I 296 W/m 15,4 C 27,2 C 15,3 km/h (3 Bft)
18.07.2015 17:00 26,2 C 47 % 1014,9 hPa 0,0 l/m 5,9 km/h (2 Bft) W 1,00 h 0,254 mm 1,2 UV-I 185 W/m 14,0 C 25,9 C 12,1 km/h (2 Bft)
18.07.2015 18:00 25,1 C 50 % 1014,8 hPa 0,0 l/m 5,2 km/h (1 Bft) W 1,00 h 0,178 mm 0,7 UV-I 111 W/m 14,1 C 24,8 C 11,6 km/h (2 Bft)
18.07.2015 19:00 24,0 C 53 % 1014,2 hPa 0,0 l/m 2,8 km/h (1 Bft) W 0,55 h 0,127 mm 0,5 UV-I 83 W/m 13,8 C 23,9 C 7,0 km/h (2 Bft)
18.07.2015 20:00 22,9 C 58 % 1014,4 hPa 0,0 l/m 0,3 km/h (0 Bft) N 0,02 h 0,076 mm 0,0 UV-I 27 W/m 14,3 C 22,9 C 1,5 km/h (1 Bft)
18.07.2015 21:00 21,5 C 63 % 1014,6 hPa 0,0 l/m 0,0 km/h (0 Bft) N 0,00 h 0,025 mm 0,0 UV-I 0 W/m 14,2 C 21,5 C 0,1 km/h (0 Bft)
18.07.2015 22:00 19,5 C 73 % 1014,9 hPa 0,0 l/m 0,0 km/h (0 Bft) N 0,00 h 0,000 mm 0,0 UV-I 0 W/m 14,5 C 19,5 C 0,0 km/h (0 Bft)
18.07.2015 23:00 17,8 C 81 % 1014,9 hPa 0,0 l/m 0,0 km/h (0 Bft) N 0,00 h 0,025 mm 0,0 UV-I 0 W/m 14,6 C 17,8 C 0,0 km/h (0 Bft)
19.07.2015 00:00 16,9 C 84 % 1014,6 hPa 0,0 l/m 0,0 km/h (0 Bft) N 0,00 h 0,025 mm 0,0 UV-I 0 W/m 14,1 C 16,9 C 0,0 km/h (0 Bft)
19.07.2015 01:00 16,2 C 87 % 1014,3 hPa 0,0 l/m 0,0 km/h (0 Bft) N 0,00 h 0,025 mm 0,0 UV-I 0 W/m 13,9 C 16,2 C 0,0 km/h (0 Bft)
19.07.2015 02:00 15,3 C 89 % 1013,9 hPa 0,0 l/m 0,0 km/h (0 Bft) N 0,00 h 0,000 mm 0,0 UV-I 0 W/m 13,5 C 15,3 C 0,0 km/h (0 Bft)
19.07.2015 03:00 14,7 C 91 % 1013,4 hPa 0,0 l/m 0,0 km/h (0 Bft) N 0,00 h 0,000 mm 0,0 UV-I 0 W/m 13,2 C 14,7 C 0,0 km/h (0 Bft)
19.07.2015 04:00 14,3 C 92 % 1012,6 hPa 0,0 l/m 0,0 km/h (0 Bft) N 0,00 h 0,000 mm 0,0 UV-I 0 W/m 13,0 C 14,3 C 0,0 km/h (0 Bft)
19.07.2015 05:00 14,3 C 92 % 1012,0 hPa 0,0 l/m 0,0 km/h (0 Bft) N 0,00 h 0,000 mm 0,0 UV-I 8 W/m 13,1 C 14,3 C 0,0 km/h (0 Bft)
19.07.2015 06:00 15,0 C 92 % 1011,4 hPa 0,0 l/m 0,0 km/h (0 Bft) N 0,15 h 0,000 mm 0,0 UV-I 30 W/m 13,7 C 15,0 C 0,0 km/h (0 Bft)
19.07.2015 07:00 16,3 C 89 % 1010,8 hPa 0,0 l/m 0,0 km/h (0 Bft) N 0,70 h 0,025 mm 0,6 UV-I 61 W/m 14,4 C 16,3 C 0,0 km/h (0 Bft)
19.07.2015 08:00 20,3 C 76 % 1010,2 hPa 0,0 l/m 0,0 km/h (0 Bft) N 0,97 h 0,025 mm 1,5 UV-I 351 W/m 15,9 C 20,3 C 0,0 km/h (0 Bft)
19.07.2015 09:00 25,2 C 61 % 1009,3 hPa 0,0 l/m 5,3 km/h (1 Bft) S 0,98 h 0,203 mm 2,6 UV-I 539 W/m 17,0 C 25,0 C 9,3 km/h (2 Bft)
19.07.2015 14:00 24,3 C 72 % 1009,8 hPa 0,0 l/m 8,6 km/h (2 Bft) W-SW 1,13 h 0,000 mm 3,7 UV-I 441 W/m 19,0 C 23,7 C 18,4 km/h (3 Bft)
19.07.2015 15:00 25,5 C 65 % 1009,2 hPa 0,0 l/m 7,9 km/h (2 Bft) SW 1,00 h 0,330 mm 4,6 UV-I 702 W/m 18,4 C 25,0 C 16,3 km/h (3 Bft)
19.07.2015 16:00 25,9 C 60 % 1008,8 hPa 0,0 l/m 5,6 km/h (2 Bft) SW 1,00 h 0,457 mm 2,7 UV-I 349 W/m 17,6 C 25,7 C 13,3 km/h (3 Bft)
19.07.2015 17:00 26,3 C 59 % 1008,5 hPa 0,0 l/m 7,3 km/h (2 Bft) SW 1,00 h 0,279 mm 1,8 UV-I 348 W/m 17,5 C 25,9 C 15,3 km/h (3 Bft)
19.07.2015 18:00 26,1 C 58 % 1008,5 hPa 0,0 l/m 8,8 km/h (2 Bft) W-SW 1,00 h 0,279 mm 0,9 UV-I 154 W/m 17,2 C 25,5 C 18,0 km/h (3 Bft)
19.07.2015 19:00 25,3 C 56 % 1008,8 hPa 0,0 l/m 11,4 km/h (2 Bft) W-SW 0,72 h 0,152 mm 0,5 UV-I 82 W/m 15,9 C 24,3 C 20,3 km/h (4 Bft)
19.07.2015 20:00 23,9 C 57 % 1008,9 hPa 0,0 l/m 5,4 km/h (2 Bft) W-SW 0,00 h 0,127 mm 0,0 UV-I 25 W/m 14,8 C 23,7 C 12,5 km/h (2 Bft)
19.07.2015 21:00 22,7 C 63 % 1009,4 hPa 0,0 l/m 4,1 km/h (1 Bft) W-SW 0,00 h 0,051 mm 0,0 UV-I 5 W/m 15,2 C 22,6 C 9,7 km/h (2 Bft)
19.07.2015 22:00 21,8 C 69 % 1010,4 hPa 0,0 l/m 2,3 km/h (1 Bft) W-SW 0,00 h 0,025 mm 0,0 UV-I 0 W/m 15,8 C 21,8 C 6,5 km/h (2 Bft)
19.07.2015 23:00 19,8 C 82 % 1011,1 hPa 6,0 l/m 2,9 km/h (1 Bft) N 0,00 h 0,051 mm 0,0 UV-I 0 W/m 16,6 C 19,6 C 5,6 km/h (2 Bft)
Min-Datum _ 17.07.15 17.07.15 19.07.15 - 13.07.15 - - - - - 17.07.15 16.07.15 13.07.15
_ Min-Zeit 03:42 17:06 17:46 - 00:02 - - - - - 17:06 05:18 00:03
Minimum _ 0,0 C 25 % 1008,3 hPa - 0,0 km/h (0 Bft) - - - - - 10,7 C 12,0 C 0,0 km/h (0 Bft)
Max-Datum _ 17.07.15 16.07.15 15.07.15 19.07.15 14.07.15 - 19.07.15 17.07.15 13.07.15 13.07.15 18.07.15 17.07.15 14.07.15
_ Max-Zeit 14:57 04:55 11:25 23:28 13:08 - 14:51 12:00 12:45 12:34 09:32 14:57 13:37
Maximum _ 33,9 C 96 % 1019,5 hPa 6,0 l/m 22,5 km/h
W (4 Bft)
- 1,00 h 0,584 mm 7,6 UV-I 1060 W/m 19,7 C 33,9 C 35,4 km/h
W (5 Bft)
Durchschnitt _ 20,3 C 73 % 1015,5 hPa #8,0 l/m 2,7 km/h (1 Bft) N #79:52 h #20,537 mm 2,4 UV-I 256 W/m 14,6 C 20,1 C 5,9 km/h (2 Bft)